sensor_id;sensor_type;location;lat;lon;timestamp;temperature;humidity
23731;DHT22;12046;44.702;10.622;2022-07-23T00:02:24;29.70;81.70
23731;DHT22;12046;44.702;10.622;2022-07-23T00:04:50;29.70;81.90
23731;DHT22;12046;44.702;10.622;2022-07-23T00:07:16;29.60;82.00
23731;DHT22;12046;44.702;10.622;2022-07-23T00:09:43;29.50;81.90
23731;DHT22;12046;44.702;10.622;2022-07-23T00:12:08;29.40;82.10
23731;DHT22;12046;44.702;10.622;2022-07-23T00:14:34;29.30;82.60
23731;DHT22;12046;44.702;10.622;2022-07-23T00:17:00;29.30;82.90
23731;DHT22;12046;44.702;10.622;2022-07-23T00:19:26;29.30;82.80
23731;DHT22;12046;44.702;10.622;2022-07-23T00:21:52;29.30;82.80
23731;DHT22;12046;44.702;10.622;2022-07-23T00:24:19;29.30;83.20
23731;DHT22;12046;44.702;10.622;2022-07-23T00:26:44;29.30;83.30
23731;DHT22;12046;44.702;10.622;2022-07-23T00:29:10;29.40;83.40
23731;DHT22;12046;44.702;10.622;2022-07-23T00:31:36;29.40;83.40
23731;DHT22;12046;44.702;10.622;2022-07-23T00:34:02;29.30;83.40
23731;DHT22;12046;44.702;10.622;2022-07-23T00:36:28;29.30;83.70
23731;DHT22;12046;44.702;10.622;2022-07-23T00:38:57;29.20;83.70
23731;DHT22;12046;44.702;10.622;2022-07-23T00:41:23;29.10;83.80
23731;DHT22;12046;44.702;10.622;2022-07-23T00:43:49;29.10;84.10
23731;DHT22;12046;44.702;10.622;2022-07-23T00:46:24;29.10;84.20
23731;DHT22;12046;44.702;10.622;2022-07-23T00:48:51;29.10;84.10
23731;DHT22;12046;44.702;10.622;2022-07-23T00:51:17;29.10;83.10
23731;DHT22;12046;44.702;10.622;2022-07-23T00:53:44;29.00;83.20
23731;DHT22;12046;44.702;10.622;2022-07-23T00:56:10;29.00;83.50
23731;DHT22;12046;44.702;10.622;2022-07-23T00:58:36;29.00;83.10
23731;DHT22;12046;44.702;10.622;2022-07-23T01:01:05;28.90;83.20
23731;DHT22;12046;44.702;10.622;2022-07-23T01:03:31;28.80;83.50
23731;DHT22;12046;44.702;10.622;2022-07-23T01:05:57;28.80;83.70
23731;DHT22;12046;44.702;10.622;2022-07-23T01:08:24;28.70;82.80
23731;DHT22;12046;44.702;10.622;2022-07-23T01:10:50;28.70;83.30
23731;DHT22;12046;44.702;10.622;2022-07-23T01:13:17;28.70;83.30
23731;DHT22;12046;44.702;10.622;2022-07-23T01:15:43;28.70;83.30
23731;DHT22;12046;44.702;10.622;2022-07-23T01:18:10;28.70;83.50
23731;DHT22;12046;44.702;10.622;2022-07-23T01:20:38;28.70;83.40
23731;DHT22;12046;44.702;10.622;2022-07-23T01:23:05;28.60;82.90
23731;DHT22;12046;44.702;10.622;2022-07-23T01:25:31;28.60;82.80
23731;DHT22;12046;44.702;10.622;2022-07-23T01:27:57;28.50;82.70
23731;DHT22;12046;44.702;10.622;2022-07-23T01:30:23;28.40;82.70
23731;DHT22;12046;44.702;10.622;2022-07-23T01:32:49;28.20;81.10
23731;DHT22;12046;44.702;10.622;2022-07-23T01:35:15;28.10;80.30
23731;DHT22;12046;44.702;10.622;2022-07-23T01:37:41;28.10;80.80
23731;DHT22;12046;44.702;10.622;2022-07-23T01:40:07;28.10;77.60
23731;DHT22;12046;44.702;10.622;2022-07-23T01:42:34;28.10;78.80
23731;DHT22;12046;44.702;10.622;2022-07-23T01:45:00;28.10;78.00
23731;DHT22;12046;44.702;10.622;2022-07-23T01:47:26;28.10;76.40
23731;DHT22;12046;44.702;10.622;2022-07-23T01:49:53;28.00;76.60
23731;DHT22;12046;44.702;10.622;2022-07-23T01:52:19;27.90;76.90
23731;DHT22;12046;44.702;10.622;2022-07-23T01:54:45;27.90;76.80
23731;DHT22;12046;44.702;10.622;2022-07-23T01:57:11;27.90;77.00
23731;DHT22;12046;44.702;10.622;2022-07-23T01:59:37;27.90;76.80
23731;DHT22;12046;44.702;10.622;2022-07-23T02:02:05;27.80;76.90
23731;DHT22;12046;44.702;10.622;2022-07-23T02:04:31;27.80;77.90
23731;DHT22;12046;44.702;10.622;2022-07-23T02:06:57;27.70;78.50
23731;DHT22;12046;44.702;10.622;2022-07-23T02:09:23;27.60;79.60
23731;DHT22;12046;44.702;10.622;2022-07-23T02:11:49;27.50;80.20
23731;DHT22;12046;44.702;10.622;2022-07-23T02:14:15;27.30;80.60
23731;DHT22;12046;44.702;10.622;2022-07-23T02:16:41;27.30;81.20
23731;DHT22;12046;44.702;10.622;2022-07-23T02:19:07;27.20;81.10
23731;DHT22;12046;44.702;10.622;2022-07-23T02:21:33;27.10;80.90
23731;DHT22;12046;44.702;10.622;2022-07-23T02:23:59;27.10;81.70
23731;DHT22;12046;44.702;10.622;2022-07-23T02:26:25;27.00;81.80
23731;DHT22;12046;44.702;10.622;2022-07-23T02:28:51;27.00;81.30
23731;DHT22;12046;44.702;10.622;2022-07-23T02:31:18;27.00;81.60
23731;DHT22;12046;44.702;10.622;2022-07-23T02:33:44;26.90;82.20
23731;DHT22;12046;44.702;10.622;2022-07-23T02:36:10;26.90;81.60
23731;DHT22;12046;44.702;10.622;2022-07-23T02:38:37;26.90;81.80
23731;DHT22;12046;44.702;10.622;2022-07-23T02:41:03;26.90;81.20
23731;DHT22;12046;44.702;10.622;2022-07-23T02:43:29;27.00;81.00
23731;DHT22;12046;44.702;10.622;2022-07-23T02:45:55;27.10;81.20
23731;DHT22;12046;44.702;10.622;2022-07-23T02:48:21;27.10;80.90
23731;DHT22;12046;44.702;10.622;2022-07-23T02:50:47;27.20;81.00
23731;DHT22;12046;44.702;10.622;2022-07-23T02:53:13;27.20;81.60
23731;DHT22;12046;44.702;10.622;2022-07-23T02:55:39;27.20;81.80
23731;DHT22;12046;44.702;10.622;2022-07-23T02:58:05;27.20;81.40
23731;DHT22;12046;44.702;10.622;2022-07-23T03:00:31;27.20;81.40
23731;DHT22;12046;44.702;10.622;2022-07-23T03:02:57;27.10;80.80
23731;DHT22;12046;44.702;10.622;2022-07-23T03:05:23;27.10;78.10
23731;DHT22;12046;44.702;10.622;2022-07-23T03:07:49;27.10;77.40
23731;DHT22;12046;44.702;10.622;2022-07-23T03:10:15;27.10;78.40
23731;DHT22;12046;44.702;10.622;2022-07-23T03:12:42;27.10;77.40
23731;DHT22;12046;44.702;10.622;2022-07-23T03:15:08;27.00;76.40
23731;DHT22;12046;44.702;10.622;2022-07-23T03:17:34;26.90;74.80
23731;DHT22;12046;44.702;10.622;2022-07-23T03:20:00;26.80;75.60
23731;DHT22;12046;44.702;10.622;2022-07-23T03:22:26;26.70;76.70
23731;DHT22;12046;44.702;10.622;2022-07-23T03:24:52;26.60;77.40
23731;DHT22;12046;44.702;10.622;2022-07-23T03:27:23;26.50;77.00
23731;DHT22;12046;44.702;10.622;2022-07-23T03:29:51;26.40;77.50
23731;DHT22;12046;44.702;10.622;2022-07-23T03:32:17;26.20;75.90
23731;DHT22;12046;44.702;10.622;2022-07-23T03:34:43;26.10;76.60
23731;DHT22;12046;44.702;10.622;2022-07-23T03:37:09;25.90;76.80
23731;DHT22;12046;44.702;10.622;2022-07-23T03:39:35;25.90;77.00
23731;DHT22;12046;44.702;10.622;2022-07-23T03:42:01;25.80;76.90
23731;DHT22;12046;44.702;10.622;2022-07-23T03:44:27;25.70;77.00
23731;DHT22;12046;44.702;10.622;2022-07-23T03:46:56;25.50;78.10
23731;DHT22;12046;44.702;10.622;2022-07-23T03:49:22;25.50;77.90
23731;DHT22;12046;44.702;10.622;2022-07-23T03:51:48;25.40;78.20
23731;DHT22;12046;44.702;10.622;2022-07-23T03:54:16;25.30;78.70
23731;DHT22;12046;44.702;10.622;2022-07-23T03:56:42;25.30;79.20
23731;DHT22;12046;44.702;10.622;2022-07-23T03:59:09;25.20;79.30
23731;DHT22;12046;44.702;10.622;2022-07-23T04:01:35;25.10;79.00
23731;DHT22;12046;44.702;10.622;2022-07-23T04:04:02;25.10;78.80
23731;DHT22;12046;44.702;10.622;2022-07-23T04:06:28;25.10;78.80
23731;DHT22;12046;44.702;10.622;2022-07-23T04:08:55;25.10;78.60
23731;DHT22;12046;44.702;10.622;2022-07-23T04:11:21;25.10;77.70
23731;DHT22;12046;44.702;10.622;2022-07-23T04:13:47;25.20;77.40
23731;DHT22;12046;44.702;10.622;2022-07-23T04:16:13;25.20;77.70
23731;DHT22;12046;44.702;10.622;2022-07-23T04:18:39;25.20;76.10
23731;DHT22;12046;44.702;10.622;2022-07-23T04:21:05;25.20;77.40
23731;DHT22;12046;44.702;10.622;2022-07-23T04:23:31;25.20;76.10
23731;DHT22;12046;44.702;10.622;2022-07-23T04:25:57;25.20;75.10
23731;DHT22;12046;44.702;10.622;2022-07-23T04:28:23;25.30;74.40
23731;DHT22;12046;44.702;10.622;2022-07-23T04:30:49;25.30;74.20
23731;DHT22;12046;44.702;10.622;2022-07-23T04:33:15;25.40;73.00
23731;DHT22;12046;44.702;10.622;2022-07-23T04:35:41;25.40;73.10
23731;DHT22;12046;44.702;10.622;2022-07-23T04:38:07;25.40;71.70
23731;DHT22;12046;44.702;10.622;2022-07-23T04:40:33;25.40;71.60
23731;DHT22;12046;44.702;10.622;2022-07-23T04:42:59;25.40;71.90
23731;DHT22;12046;44.702;10.622;2022-07-23T04:45:25;25.50;71.60
23731;DHT22;12046;44.702;10.622;2022-07-23T04:47:52;25.60;71.00
23731;DHT22;12046;44.702;10.622;2022-07-23T04:50:18;25.70;70.50
23731;DHT22;12046;44.702;10.622;2022-07-23T04:52:47;25.70;70.90
23731;DHT22;12046;44.702;10.622;2022-07-23T04:55:14;25.80;71.20
23731;DHT22;12046;44.702;10.622;2022-07-23T04:57:41;25.80;71.00
23731;DHT22;12046;44.702;10.622;2022-07-23T05:00:08;25.90;71.10
23731;DHT22;12046;44.702;10.622;2022-07-23T05:02:34;26.00;71.10
23731;DHT22;12046;44.702;10.622;2022-07-23T05:05:00;26.10;70.10
23731;DHT22;12046;44.702;10.622;2022-07-23T05:07:26;26.20;70.40
23731;DHT22;12046;44.702;10.622;2022-07-23T05:09:52;26.20;70.00
23731;DHT22;12046;44.702;10.622;2022-07-23T05:12:18;26.30;70.30
23731;DHT22;12046;44.702;10.622;2022-07-23T05:14:44;26.30;70.50
23731;DHT22;12046;44.702;10.622;2022-07-23T05:17:10;26.50;71.50
23731;DHT22;12046;44.702;10.622;2022-07-23T05:19:36;26.60;71.80
23731;DHT22;12046;44.702;10.622;2022-07-23T05:22:02;26.80;71.40
23731;DHT22;12046;44.702;10.622;2022-07-23T05:24:28;26.90;71.90
23731;DHT22;12046;44.702;10.622;2022-07-23T05:26:54;27.00;71.70
23731;DHT22;12046;44.702;10.622;2022-07-23T05:29:20;27.20;71.80
23731;DHT22;12046;44.702;10.622;2022-07-23T05:31:46;27.30;71.80
23731;DHT22;12046;44.702;10.622;2022-07-23T05:34:12;27.40;72.20
23731;DHT22;12046;44.702;10.622;2022-07-23T05:36:38;27.50;72.00
23731;DHT22;12046;44.702;10.622;2022-07-23T05:39:04;27.60;71.00
23731;DHT22;12046;44.702;10.622;2022-07-23T05:41:31;27.70;72.50
23731;DHT22;12046;44.702;10.622;2022-07-23T05:43:57;27.70;74.20
23731;DHT22;12046;44.702;10.622;2022-07-23T05:46:22;27.70;76.20
23731;DHT22;12046;44.702;10.622;2022-07-23T05:48:51;27.80;77.40
23731;DHT22;12046;44.702;10.622;2022-07-23T05:51:24;27.80;78.40
23731;DHT22;12046;44.702;10.622;2022-07-23T05:53:51;27.90;79.20
23731;DHT22;12046;44.702;10.622;2022-07-23T05:56:20;27.90;79.30
23731;DHT22;12046;44.702;10.622;2022-07-23T05:58:49;28.00;78.80
23731;DHT22;12046;44.702;10.622;2022-07-23T06:01:15;28.00;78.90
23731;DHT22;12046;44.702;10.622;2022-07-23T06:03:41;28.00;78.40
23731;DHT22;12046;44.702;10.622;2022-07-23T06:06:07;28.10;78.10
23731;DHT22;12046;44.702;10.622;2022-07-23T06:08:42;28.10;78.20
23731;DHT22;12046;44.702;10.622;2022-07-23T06:11:08;28.10;78.50
23731;DHT22;12046;44.702;10.622;2022-07-23T06:13:44;28.20;77.40
23731;DHT22;12046;44.702;10.622;2022-07-23T06:16:10;28.20;77.90
23731;DHT22;12046;44.702;10.622;2022-07-23T06:18:36;28.30;76.80
23731;DHT22;12046;44.702;10.622;2022-07-23T06:21:08;28.40;77.00
23731;DHT22;12046;44.702;10.622;2022-07-23T06:23:42;28.50;76.50
23731;DHT22;12046;44.702;10.622;2022-07-23T06:26:08;28.60;75.00
23731;DHT22;12046;44.702;10.622;2022-07-23T06:28:34;28.70;75.80
23731;DHT22;12046;44.702;10.622;2022-07-23T06:31:03;28.70;75.30
23731;DHT22;12046;44.702;10.622;2022-07-23T06:33:29;28.80;74.00
23731;DHT22;12046;44.702;10.622;2022-07-23T06:35:55;28.80;74.30
23731;DHT22;12046;44.702;10.622;2022-07-23T06:38:27;28.80;73.50
23731;DHT22;12046;44.702;10.622;2022-07-23T06:40:53;28.90;73.10
23731;DHT22;12046;44.702;10.622;2022-07-23T06:43:19;28.90;72.90
23731;DHT22;12046;44.702;10.622;2022-07-23T06:45:45;29.00;72.80
23731;DHT22;12046;44.702;10.622;2022-07-23T06:48:11;29.10;72.00
23731;DHT22;12046;44.702;10.622;2022-07-23T06:50:45;29.20;70.50
23731;DHT22;12046;44.702;10.622;2022-07-23T06:53:17;29.20;70.80
23731;DHT22;12046;44.702;10.622;2022-07-23T06:55:43;29.30;70.60
23731;DHT22;12046;44.702;10.622;2022-07-23T06:58:08;29.50;69.60
23731;DHT22;12046;44.702;10.622;2022-07-23T07:00:36;29.60;70.50
23731;DHT22;12046;44.702;10.622;2022-07-23T07:03:02;29.70;69.90
23731;DHT22;12046;44.702;10.622;2022-07-23T07:05:28;29.90;69.60
23731;DHT22;12046;44.702;10.622;2022-07-23T07:07:57;30.10;69.90
23731;DHT22;12046;44.702;10.622;2022-07-23T07:10:23;30.20;69.40
23731;DHT22;12046;44.702;10.622;2022-07-23T07:12:49;30.30;69.00
23731;DHT22;12046;44.702;10.622;2022-07-23T07:15:15;30.40;68.90
23731;DHT22;12046;44.702;10.622;2022-07-23T07:17:41;30.60;68.90
23731;DHT22;12046;44.702;10.622;2022-07-23T07:20:08;30.70;68.20
23731;DHT22;12046;44.702;10.622;2022-07-23T07:22:35;30.80;68.30
23731;DHT22;12046;44.702;10.622;2022-07-23T07:25:01;30.90;67.70
23731;DHT22;12046;44.702;10.622;2022-07-23T07:27:27;30.70;68.00
23731;DHT22;12046;44.702;10.622;2022-07-23T07:29:53;30.80;68.40
23731;DHT22;12046;44.702;10.622;2022-07-23T07:32:19;30.90;67.70
23731;DHT22;12046;44.702;10.622;2022-07-23T07:34:45;31.00;66.10
23731;DHT22;12046;44.702;10.622;2022-07-23T07:37:10;31.10;65.70
23731;DHT22;12046;44.702;10.622;2022-07-23T07:39:36;31.30;64.80
23731;DHT22;12046;44.702;10.622;2022-07-23T07:42:02;31.40;64.20
23731;DHT22;12046;44.702;10.622;2022-07-23T07:44:29;31.40;64.80
23731;DHT22;12046;44.702;10.622;2022-07-23T07:46:55;31.40;64.10
23731;DHT22;12046;44.702;10.622;2022-07-23T07:49:21;31.50;64.10
23731;DHT22;12046;44.702;10.622;2022-07-23T07:51:48;31.50;64.40
23731;DHT22;12046;44.702;10.622;2022-07-23T07:54:14;31.70;65.20
23731;DHT22;12046;44.702;10.622;2022-07-23T07:56:40;31.80;64.50
23731;DHT22;12046;44.702;10.622;2022-07-23T07:59:06;31.90;64.20
23731;DHT22;12046;44.702;10.622;2022-07-23T08:01:32;32.10;63.60
23731;DHT22;12046;44.702;10.622;2022-07-23T08:03:58;32.20;63.20
23731;DHT22;12046;44.702;10.622;2022-07-23T08:06:24;32.30;63.00
23731;DHT22;12046;44.702;10.622;2022-07-23T08:08:50;32.40;62.70
23731;DHT22;12046;44.702;10.622;2022-07-23T08:11:16;32.50;62.90
23731;DHT22;12046;44.702;10.622;2022-07-23T08:13:42;32.50;62.30
23731;DHT22;12046;44.702;10.622;2022-07-23T08:16:12;32.60;63.40
23731;DHT22;12046;44.702;10.622;2022-07-23T08:18:38;32.70;62.40
23731;DHT22;12046;44.702;10.622;2022-07-23T08:21:04;32.80;61.10
23731;DHT22;12046;44.702;10.622;2022-07-23T08:23:31;32.80;60.80
23731;DHT22;12046;44.702;10.622;2022-07-23T08:25:57;32.90;61.00
23731;DHT22;12046;44.702;10.622;2022-07-23T08:28:25;32.90;61.10
23731;DHT22;12046;44.702;10.622;2022-07-23T08:30:57;32.90;61.00
23731;DHT22;12046;44.702;10.622;2022-07-23T08:33:23;32.90;61.70
23731;DHT22;12046;44.702;10.622;2022-07-23T08:35:51;32.90;61.40
23731;DHT22;12046;44.702;10.622;2022-07-23T08:38:20;32.90;62.30
23731;DHT22;12046;44.702;10.622;2022-07-23T08:40:49;33.00;61.90
23731;DHT22;12046;44.702;10.622;2022-07-23T08:43:19;33.00;60.60
23731;DHT22;12046;44.702;10.622;2022-07-23T08:45:47;33.00;62.10
23731;DHT22;12046;44.702;10.622;2022-07-23T08:48:22;33.20;62.50
23731;DHT22;12046;44.702;10.622;2022-07-23T08:50:51;33.40;62.40
23731;DHT22;12046;44.702;10.622;2022-07-23T08:53:22;33.40;63.10
23731;DHT22;12046;44.702;10.622;2022-07-23T08:55:50;33.60;63.90
23731;DHT22;12046;44.702;10.622;2022-07-23T08:58:17;33.70;63.70
23731;DHT22;12046;44.702;10.622;2022-07-23T09:00:44;33.80;63.90
23731;DHT22;12046;44.702;10.622;2022-07-23T09:03:21;33.90;63.40
23731;DHT22;12046;44.702;10.622;2022-07-23T09:05:52;33.90;63.40
23731;DHT22;12046;44.702;10.622;2022-07-23T09:08:38;34.00;63.90
23731;DHT22;12046;44.702;10.622;2022-07-23T09:11:16;34.10;63.50
23731;DHT22;12046;44.702;10.622;2022-07-23T09:16:17;34.20;64.90
23731;DHT22;12046;44.702;10.622;2022-07-23T09:21:30;34.40;64.60
23731;DHT22;12046;44.702;10.622;2022-07-23T09:26:25;34.50;62.20
23731;DHT22;12046;44.702;10.622;2022-07-23T09:31:50;34.50;63.60
23731;DHT22;12046;44.702;10.622;2022-07-23T09:34:25;34.60;63.80
23731;DHT22;12046;44.702;10.622;2022-07-23T09:36:56;34.70;63.60
23731;DHT22;12046;44.702;10.622;2022-07-23T09:39:32;34.70;63.10
23731;DHT22;12046;44.702;10.622;2022-07-23T09:42:24;34.80;63.70
23731;DHT22;12046;44.702;10.622;2022-07-23T09:44:52;34.90;64.80
23731;DHT22;12046;44.702;10.622;2022-07-23T09:47:19;35.00;64.20
23731;DHT22;12046;44.702;10.622;2022-07-23T09:50:06;35.00;65.10
23731;DHT22;12046;44.702;10.622;2022-07-23T09:52:45;34.90;63.80
23731;DHT22;12046;44.702;10.622;2022-07-23T09:55:16;35.00;64.40
23731;DHT22;12046;44.702;10.622;2022-07-23T09:57:43;34.90;64.10
23731;DHT22;12046;44.702;10.622;2022-07-23T10:00:16;34.90;64.60
23731;DHT22;12046;44.702;10.622;2022-07-23T10:02:42;35.10;64.60
23731;DHT22;12046;44.702;10.622;2022-07-23T10:05:11;35.20;64.40
23731;DHT22;12046;44.702;10.622;2022-07-23T10:07:39;35.30;64.40
23731;DHT22;12046;44.702;10.622;2022-07-23T10:10:06;35.40;63.70
23731;DHT22;12046;44.702;10.622;2022-07-23T10:12:33;35.40;64.00
23731;DHT22;12046;44.702;10.622;2022-07-23T10:15:08;35.50;63.50
23731;DHT22;12046;44.702;10.622;2022-07-23T10:17:35;35.60;63.90
23731;DHT22;12046;44.702;10.622;2022-07-23T10:20:02;35.80;63.60
23731;DHT22;12046;44.702;10.622;2022-07-23T10:22:31;35.80;63.20
23731;DHT22;12046;44.702;10.622;2022-07-23T10:30:55;36.00;62.80
23731;DHT22;12046;44.702;10.622;2022-07-23T10:36:38;36.30;61.70
23731;DHT22;12046;44.702;10.622;2022-07-23T10:39:24;36.30;62.70
23731;DHT22;12046;44.702;10.622;2022-07-23T10:41:52;36.60;61.70
23731;DHT22;12046;44.702;10.622;2022-07-23T10:44:20;36.70;60.40
23731;DHT22;12046;44.702;10.622;2022-07-23T10:46:58;36.70;60.50
23731;DHT22;12046;44.702;10.622;2022-07-23T10:49:27;36.70;62.20
23731;DHT22;12046;44.702;10.622;2022-07-23T10:52:27;36.80;60.70
23731;DHT22;12046;44.702;10.622;2022-07-23T10:57:50;37.00;59.60
23731;DHT22;12046;44.702;10.622;2022-07-23T11:00:26;37.10;59.60
23731;DHT22;12046;44.702;10.622;2022-07-23T11:02:59;37.20;60.40
23731;DHT22;12046;44.702;10.622;2022-07-23T11:05:45;37.20;59.50
23731;DHT22;12046;44.702;10.622;2022-07-23T11:08:14;37.30;59.90
23731;DHT22;12046;44.702;10.622;2022-07-23T11:10:46;37.40;59.00
23731;DHT22;12046;44.702;10.622;2022-07-23T11:16:16;37.40;59.30
23731;DHT22;12046;44.702;10.622;2022-07-23T11:24:09;37.40;59.10
23731;DHT22;12046;44.702;10.622;2022-07-23T11:34:38;37.50;58.70
23731;DHT22;12046;44.702;10.622;2022-07-23T11:37:10;37.50;59.10
23731;DHT22;12046;44.702;10.622;2022-07-23T11:39:37;37.60;59.40
23731;DHT22;12046;44.702;10.622;2022-07-23T11:42:05;37.70;58.60
23731;DHT22;12046;44.702;10.622;2022-07-23T11:44:35;37.70;59.50
23731;DHT22;12046;44.702;10.622;2022-07-23T11:47:09;37.80;58.50
23731;DHT22;12046;44.702;10.622;2022-07-23T11:49:36;37.80;58.30
23731;DHT22;12046;44.702;10.622;2022-07-23T11:54:33;37.40;58.10
23731;DHT22;12046;44.702;10.622;2022-07-23T11:57:00;37.40;58.00
23731;DHT22;12046;44.702;10.622;2022-07-23T11:59:32;37.40;57.50
23731;DHT22;12046;44.702;10.622;2022-07-23T12:02:03;37.40;58.20
23731;DHT22;12046;44.702;10.622;2022-07-23T12:04:45;37.50;58.40
23731;DHT22;12046;44.702;10.622;2022-07-23T12:07:25;37.60;58.40
23731;DHT22;12046;44.702;10.622;2022-07-23T12:09:51;37.70;58.30
23731;DHT22;12046;44.702;10.622;2022-07-23T12:12:17;37.80;58.70
23731;DHT22;12046;44.702;10.622;2022-07-23T12:14:55;37.90;58.10
23731;DHT22;12046;44.702;10.622;2022-07-23T12:17:31;38.00;57.20
23731;DHT22;12046;44.702;10.622;2022-07-23T12:19:58;37.90;58.00
23731;DHT22;12046;44.702;10.622;2022-07-23T12:22:26;37.80;57.30
23731;DHT22;12046;44.702;10.622;2022-07-23T12:25:00;37.70;58.10
23731;DHT22;12046;44.702;10.622;2022-07-23T12:27:30;37.80;58.10
23731;DHT22;12046;44.702;10.622;2022-07-23T12:29:56;37.80;57.90
23731;DHT22;12046;44.702;10.622;2022-07-23T12:32:28;37.80;57.70
23731;DHT22;12046;44.702;10.622;2022-07-23T12:35:06;37.60;57.60
23731;DHT22;12046;44.702;10.622;2022-07-23T12:37:38;37.50;58.20
23731;DHT22;12046;44.702;10.622;2022-07-23T12:42:58;37.90;59.20
23731;DHT22;12046;44.702;10.622;2022-07-23T12:45:25;38.10;58.30
23731;DHT22;12046;44.702;10.622;2022-07-23T12:53:37;38.40;57.60
23731;DHT22;12046;44.702;10.622;2022-07-23T12:56:28;38.40;57.10
23731;DHT22;12046;44.702;10.622;2022-07-23T12:59:16;38.30;56.20
23731;DHT22;12046;44.702;10.622;2022-07-23T13:01:55;38.10;57.00
23731;DHT22;12046;44.702;10.622;2022-07-23T13:04:25;37.90;56.60
23731;DHT22;12046;44.702;10.622;2022-07-23T13:06:54;37.80;57.10
23731;DHT22;12046;44.702;10.622;2022-07-23T13:09:24;37.70;57.70
23731;DHT22;12046;44.702;10.622;2022-07-23T13:11:52;37.70;58.60
23731;DHT22;12046;44.702;10.622;2022-07-23T13:14:19;37.90;57.60
23731;DHT22;12046;44.702;10.622;2022-07-23T13:16:47;38.00;58.30
23731;DHT22;12046;44.702;10.622;2022-07-23T13:19:15;38.10;57.00
23731;DHT22;12046;44.702;10.622;2022-07-23T13:21:41;38.20;57.70
23731;DHT22;12046;44.702;10.622;2022-07-23T13:24:10;38.30;57.60
23731;DHT22;12046;44.702;10.622;2022-07-23T13:26:36;38.50;57.30
23731;DHT22;12046;44.702;10.622;2022-07-23T13:29:03;38.60;56.80
23731;DHT22;12046;44.702;10.622;2022-07-23T13:31:30;38.50;57.00
23731;DHT22;12046;44.702;10.622;2022-07-23T13:33:56;38.50;57.00
23731;DHT22;12046;44.702;10.622;2022-07-23T13:36:22;38.60;57.00
23731;DHT22;12046;44.702;10.622;2022-07-23T13:38:47;38.60;57.10
23731;DHT22;12046;44.702;10.622;2022-07-23T13:41:13;38.60;56.90
23731;DHT22;12046;44.702;10.622;2022-07-23T13:43:42;38.50;56.80
23731;DHT22;12046;44.702;10.622;2022-07-23T13:46:08;38.40;57.10
23731;DHT22;12046;44.702;10.622;2022-07-23T13:48:34;38.40;56.90
23731;DHT22;12046;44.702;10.622;2022-07-23T13:51:00;38.50;57.20
23731;DHT22;12046;44.702;10.622;2022-07-23T13:53:26;38.40;56.90
23731;DHT22;12046;44.702;10.622;2022-07-23T13:55:52;38.40;56.80
23731;DHT22;12046;44.702;10.622;2022-07-23T13:58:19;38.50;57.20
23731;DHT22;12046;44.702;10.622;2022-07-23T14:00:49;38.50;57.10
23731;DHT22;12046;44.702;10.622;2022-07-23T14:03:17;38.60;56.70
23731;DHT22;12046;44.702;10.622;2022-07-23T14:05:43;38.60;57.50
23731;DHT22;12046;44.702;10.622;2022-07-23T14:08:10;38.60;57.00
23731;DHT22;12046;44.702;10.622;2022-07-23T14:10:36;38.50;56.90
23731;DHT22;12046;44.702;10.622;2022-07-23T14:13:03;38.50;57.00
23731;DHT22;12046;44.702;10.622;2022-07-23T14:15:30;38.60;57.20
23731;DHT22;12046;44.702;10.622;2022-07-23T14:17:57;38.60;56.80
23731;DHT22;12046;44.702;10.622;2022-07-23T14:20:24;38.60;57.00
23731;DHT22;12046;44.702;10.622;2022-07-23T14:22:51;38.60;56.60
23731;DHT22;12046;44.702;10.622;2022-07-23T14:25:17;38.60;56.40
23731;DHT22;12046;44.702;10.622;2022-07-23T14:27:44;38.40;56.60
23731;DHT22;12046;44.702;10.622;2022-07-23T14:30:11;38.40;57.00
23731;DHT22;12046;44.702;10.622;2022-07-23T14:32:38;38.50;57.00
23731;DHT22;12046;44.702;10.622;2022-07-23T14:35:05;38.70;56.80
23731;DHT22;12046;44.702;10.622;2022-07-23T14:37:31;38.90;56.60
23731;DHT22;12046;44.702;10.622;2022-07-23T14:39:57;38.90;56.20
23731;DHT22;12046;44.702;10.622;2022-07-23T14:42:24;38.90;56.10
23731;DHT22;12046;44.702;10.622;2022-07-23T14:44:50;38.70;56.50
23731;DHT22;12046;44.702;10.622;2022-07-23T14:47:16;38.70;56.80
23731;DHT22;12046;44.702;10.622;2022-07-23T14:49:42;38.70;56.90
23731;DHT22;12046;44.702;10.622;2022-07-23T14:52:08;38.80;56.90
23731;DHT22;12046;44.702;10.622;2022-07-23T14:54:34;38.90;57.20
23731;DHT22;12046;44.702;10.622;2022-07-23T14:57:01;38.90;56.80
23731;DHT22;12046;44.702;10.622;2022-07-23T14:59:29;38.90;57.20
23731;DHT22;12046;44.702;10.622;2022-07-23T15:01:57;38.90;56.90
23731;DHT22;12046;44.702;10.622;2022-07-23T15:04:24;38.80;57.00
23731;DHT22;12046;44.702;10.622;2022-07-23T15:06:50;38.90;57.40
23731;DHT22;12046;44.702;10.622;2022-07-23T15:09:17;38.90;57.40
23731;DHT22;12046;44.702;10.622;2022-07-23T15:11:43;39.00;57.30
23731;DHT22;12046;44.702;10.622;2022-07-23T15:14:10;39.00;57.40
23731;DHT22;12046;44.702;10.622;2022-07-23T15:16:36;38.90;56.80
23731;DHT22;12046;44.702;10.622;2022-07-23T15:19:04;38.90;56.80
23731;DHT22;12046;44.702;10.622;2022-07-23T15:21:30;38.80;56.80
23731;DHT22;12046;44.702;10.622;2022-07-23T15:23:57;38.70;57.10
23731;DHT22;12046;44.702;10.622;2022-07-23T15:26:27;38.70;56.50
23731;DHT22;12046;44.702;10.622;2022-07-23T15:28:54;38.40;57.20
23731;DHT22;12046;44.702;10.622;2022-07-23T15:31:20;38.30;57.90
23731;DHT22;12046;44.702;10.622;2022-07-23T15:33:46;38.30;57.70
23731;DHT22;12046;44.702;10.622;2022-07-23T15:36:12;38.40;58.00
23731;DHT22;12046;44.702;10.622;2022-07-23T15:38:39;38.50;57.60
23731;DHT22;12046;44.702;10.622;2022-07-23T15:41:05;38.50;57.60
23731;DHT22;12046;44.702;10.622;2022-07-23T15:43:31;38.40;58.00
23731;DHT22;12046;44.702;10.622;2022-07-23T15:45:57;38.40;57.80
23731;DHT22;12046;44.702;10.622;2022-07-23T15:48:24;38.40;58.40
23731;DHT22;12046;44.702;10.622;2022-07-23T15:50:50;38.30;58.50
23731;DHT22;12046;44.702;10.622;2022-07-23T15:53:16;38.20;58.60
23731;DHT22;12046;44.702;10.622;2022-07-23T15:55:43;38.00;58.90
23731;DHT22;12046;44.702;10.622;2022-07-23T15:58:30;38.00;59.30
23731;DHT22;12046;44.702;10.622;2022-07-23T16:01:15;37.90;58.80
23731;DHT22;12046;44.702;10.622;2022-07-23T16:03:42;37.90;58.30
23731;DHT22;12046;44.702;10.622;2022-07-23T16:06:08;37.80;58.70
23731;DHT22;12046;44.702;10.622;2022-07-23T16:08:35;37.80;59.10
23731;DHT22;12046;44.702;10.622;2022-07-23T16:11:01;37.70;58.50